createdAt,value
2019-02-16T00:00:34.311Z,101184.45
2019-02-16T00:03:03.712Z,101181.89
2019-02-16T00:05:33.395Z,101175.78
2019-02-16T00:08:03.214Z,101179.33
2019-02-16T00:10:32.548Z,101182.55
2019-02-16T00:13:01.908Z,101184.05
2019-02-16T00:15:31.304Z,101184.45
2019-02-16T00:18:01.236Z,101187.81
2019-02-16T00:20:30.580Z,101182.38
2019-02-16T00:22:59.934Z,101184.20
2019-02-16T00:25:30.015Z,101179.44
2019-02-16T00:27:59.328Z,101185.55
2019-02-16T00:30:28.680Z,101185.20
2019-02-16T00:32:58.039Z,101182.00
2019-02-16T00:35:27.379Z,101178.10
2019-02-16T00:37:56.734Z,101184.27
2019-02-16T00:40:26.896Z,101186.66
2019-02-16T00:42:56.712Z,101186.00
2019-02-16T00:45:26.038Z,101189.61
2019-02-16T00:47:55.408Z,101187.73
2019-02-16T00:50:24.783Z,101189.08
2019-02-16T00:52:55.564Z,101191.00
2019-02-16T00:55:26.963Z,101191.40
2019-02-16T00:57:57.003Z,101192.09
2019-02-16T01:00:26.415Z,101192.58
2019-02-16T01:02:56.304Z,101188.13
2019-02-16T01:05:25.703Z,101184.77
2019-02-16T01:07:54.998Z,101191.98
2019-02-16T01:10:24.362Z,101189.55
2019-02-16T01:12:53.772Z,101198.02
2019-02-16T01:15:23.272Z,101191.30
2019-02-16T01:17:53.547Z,101186.27
2019-02-16T01:20:22.839Z,101185.41
2019-02-16T01:22:52.228Z,101183.98
2019-02-16T01:25:21.567Z,101185.31
2019-02-16T01:27:50.881Z,101181.52
2019-02-16T01:30:20.200Z,101177.07
2019-02-16T01:32:49.552Z,101176.58
2019-02-16T01:35:18.830Z,101177.53
2019-02-16T01:37:48.128Z,101179.44
2019-02-16T01:40:17.485Z,101179.46
2019-02-16T01:42:47.076Z,101180.20
2019-02-16T01:45:16.199Z,101181.05
2019-02-16T01:47:46.521Z,101178.88
2019-02-16T01:50:16.804Z,101171.48
2019-02-16T01:52:46.227Z,101173.75
2019-02-16T01:55:15.549Z,101174.78
2019-02-16T01:57:45.535Z,101169.66
2019-02-16T02:00:15.552Z,101175.76
2019-02-16T02:02:44.905Z,101173.19
2019-02-16T02:05:14.342Z,101171.66
2019-02-16T02:07:43.766Z,101167.77
2019-02-16T02:10:13.063Z,101168.34
2019-02-16T02:12:42.525Z,101161.80
2019-02-16T02:15:12.007Z,101169.20
2019-02-16T02:17:41.752Z,101166.27
2019-02-16T02:20:11.207Z,101169.77
2019-02-16T02:22:40.547Z,101173.68
2019-02-16T02:25:11.803Z,101175.08
2019-02-16T02:27:41.220Z,101171.77
2019-02-16T02:30:11.114Z,101171.86
2019-02-16T02:32:40.502Z,101169.83
2019-02-16T02:35:10.505Z,101172.22
2019-02-16T02:37:39.981Z,101168.78
2019-02-16T02:40:09.379Z,101169.93
2019-02-16T02:42:39.064Z,101165.73
2019-02-16T02:45:10.047Z,101166.01
2019-02-16T02:47:39.401Z,101161.39
2019-02-16T02:50:09.448Z,101162.02
2019-02-16T02:52:38.831Z,101156.26
2019-02-16T02:55:08.253Z,101161.75
2019-02-16T02:57:38.271Z,101160.42
2019-02-16T03:00:08.167Z,101159.55
2019-02-16T03:02:37.599Z,101158.88
2019-02-16T03:05:09.164Z,101160.22
2019-02-16T03:07:39.434Z,101152.61
2019-02-16T03:10:08.880Z,101151.67
2019-02-16T03:12:38.374Z,101151.49
2019-02-16T03:15:09.791Z,101147.59
2019-02-16T03:17:39.099Z,101148.14
2019-02-16T03:20:08.452Z,101146.41
2019-02-16T03:23:43.082Z,101149.16
2019-02-16T03:26:27.874Z,101147.25
2019-02-16T03:29:08.249Z,101148.48
2019-02-16T03:33:53.809Z,101140.70
2019-02-16T03:36:47.652Z,101148.00
2019-02-16T03:39:22.279Z,101148.27
2019-02-16T03:41:52.249Z,101147.78
2019-02-16T03:44:21.860Z,101148.00
2019-02-16T03:46:52.213Z,101154.25
2019-02-16T03:49:21.581Z,101151.58
2019-02-16T03:51:51.463Z,101149.53
2019-02-16T03:54:21.996Z,101148.78
2019-02-16T03:56:52.048Z,101151.17
2019-02-16T03:59:21.532Z,101155.59
2019-02-16T04:05:01.381Z,101164.62
2019-02-16T04:07:30.691Z,101165.72
2019-02-16T04:10:00.424Z,101168.77
2019-02-16T04:12:29.560Z,101174.65
2019-02-16T04:14:58.906Z,101180.49
2019-02-16T04:17:28.229Z,101183.73
2019-02-16T04:19:58.240Z,101185.85
2019-02-16T04:22:27.532Z,101187.45
2019-02-16T04:24:56.883Z,101187.94
2019-02-16T04:27:26.309Z,101197.62
2019-02-16T04:29:55.641Z,101195.06
2019-02-16T04:32:25.029Z,101187.94
2019-02-16T04:34:54.295Z,101187.77
2019-02-16T04:37:24.592Z,101180.95
2019-02-16T04:39:53.963Z,101185.11
2019-02-16T04:42:23.641Z,101178.08
2019-02-16T04:44:53.034Z,101164.36
2019-02-16T04:47:22.326Z,101163.12
2019-02-16T04:49:52.079Z,101155.02
2019-02-16T04:52:21.371Z,101155.60
2019-02-16T04:54:50.743Z,101152.19
2019-02-16T04:57:20.029Z,101156.56
2019-02-16T04:59:49.975Z,101165.47
2019-02-16T05:02:19.301Z,101167.44
2019-02-16T05:04:48.579Z,101168.80
2019-02-16T05:07:17.936Z,101170.14
2019-02-16T05:09:47.361Z,101169.94
2019-02-16T05:12:16.643Z,101165.12
2019-02-16T05:14:45.985Z,101159.65
2019-02-16T05:17:15.357Z,101164.25
2019-02-16T05:19:44.691Z,101162.30
2019-02-16T05:22:14.018Z,101168.23
2019-02-16T05:24:43.359Z,101155.19
2019-02-16T05:27:12.713Z,101160.49
2019-02-16T05:29:42.053Z,101162.84
2019-02-16T05:32:11.358Z,101157.75
2019-02-16T05:34:40.649Z,101163.96
2019-02-16T05:37:10.050Z,101166.28
2019-02-16T05:39:40.206Z,101161.91
2019-02-16T05:42:09.476Z,101155.75
2019-02-16T05:44:45.581Z,101152.45
2019-02-16T05:47:14.911Z,101161.38
2019-02-16T05:49:44.260Z,101158.32
2019-02-16T05:52:13.662Z,101164.72
2019-02-16T05:54:42.992Z,101160.03
2019-02-16T05:57:12.330Z,101158.36
2019-02-16T05:59:42.273Z,101156.14
2019-02-16T06:02:11.683Z,101147.88
2019-02-16T06:04:41.026Z,101146.80
2019-02-16T06:07:10.327Z,101145.95
2019-02-16T06:09:39.698Z,101140.48
2019-02-16T06:12:09.067Z,101145.66
2019-02-16T06:14:38.397Z,101153.22
2019-02-16T06:17:07.732Z,101157.36
2019-02-16T06:19:37.116Z,101160.86
2019-02-16T06:22:06.612Z,101164.47
2019-02-16T06:24:35.940Z,101161.98
2019-02-16T06:27:05.249Z,101161.75
2019-02-16T06:29:34.613Z,101165.69
2019-02-16T06:32:04.043Z,101167.13
2019-02-16T06:34:33.362Z,101170.58
2019-02-16T06:37:07.392Z,101173.83
2019-02-16T06:39:36.827Z,101179.98
2019-02-16T06:42:06.166Z,101186.45
2019-02-16T06:44:35.580Z,101187.09
2019-02-16T06:47:04.896Z,101193.48
2019-02-16T06:49:34.229Z,101189.34
2019-02-16T06:52:03.592Z,101204.69
2019-02-16T06:54:32.997Z,101208.05
2019-02-16T06:57:06.224Z,101214.48
2019-02-16T06:59:35.795Z,101210.52
2019-02-16T07:02:05.114Z,101212.03
2019-02-16T07:04:35.728Z,101215.93
2019-02-16T07:07:05.049Z,101199.95
2019-02-16T07:09:34.403Z,101203.76
2019-02-16T07:12:03.731Z,101210.22
2019-02-16T07:14:33.092Z,101206.45
2019-02-16T07:18:09.893Z,101216.89
2019-02-16T07:20:39.212Z,101208.45
2019-02-16T07:23:08.567Z,101204.30
2019-02-16T07:25:37.896Z,101202.22
2019-02-16T07:28:07.239Z,101199.77
2019-02-16T07:30:36.573Z,101204.23
2019-02-16T07:33:05.893Z,101206.63
2019-02-16T07:35:35.218Z,101204.17
2019-02-16T07:38:04.740Z,101209.48
2019-02-16T07:40:34.085Z,101203.08
2019-02-16T07:43:03.458Z,101209.34
2019-02-16T07:46:03.264Z,101209.18
2019-02-16T07:48:42.019Z,101218.30
2019-02-16T07:51:15.430Z,101223.75
2019-02-16T07:54:49.443Z,101220.20
2019-02-16T07:57:23.725Z,101225.53
2019-02-16T08:00:28.302Z,101223.10
2019-02-16T08:03:02.562Z,101226.26
2019-02-16T08:06:08.275Z,101227.52
2019-02-16T08:08:44.669Z,101229.72
2019-02-16T08:11:20.145Z,101229.57
2019-02-16T08:13:58.073Z,101224.27
2019-02-16T08:16:30.613Z,101231.62
2019-02-16T08:19:04.020Z,101228.62
2019-02-16T08:21:39.719Z,101222.34
2019-02-16T08:24:14.148Z,101225.12
2019-02-16T08:26:47.566Z,101219.06
2019-02-16T08:29:21.868Z,101227.03
2019-02-16T08:32:58.686Z,101225.97
2019-02-16T08:35:32.916Z,101231.33
2019-02-16T08:38:08.276Z,101223.57
2019-02-16T08:40:43.605Z,101225.62
2019-02-16T08:43:18.990Z,101216.34
2019-02-16T08:46:52.720Z,101215.27
2019-02-16T08:49:26.949Z,101210.24
2019-02-16T08:52:03.169Z,101205.12
2019-02-16T08:54:41.539Z,101209.94
2019-02-16T08:57:17.970Z,101206.06
2019-02-16T08:59:53.549Z,101210.90
2019-02-16T09:02:44.331Z,101205.47
2019-02-16T09:05:17.725Z,101208.12
2019-02-16T09:08:11.207Z,101209.84
2019-02-16T09:10:47.578Z,101208.12
2019-02-16T09:13:22.266Z,101222.58
2019-02-16T09:16:02.422Z,101222.21
2019-02-16T09:18:35.817Z,101218.39
2019-02-16T09:21:29.294Z,101217.44
2019-02-16T09:24:03.559Z,101207.74
2019-02-16T09:26:39.832Z,101202.42
2019-02-16T09:31:17.677Z,101195.38
2019-02-16T09:33:52.168Z,101194.48
2019-02-16T09:36:26.608Z,101197.59
2019-02-16T09:39:00.049Z,101207.59
2019-02-16T09:41:37.564Z,101205.68
2019-02-16T09:44:12.117Z,101201.20
2019-02-16T09:47:05.684Z,101195.97
2019-02-16T09:49:44.092Z,101205.34
2019-02-16T09:54:27.481Z,101193.70
2019-02-16T09:57:03.880Z,101188.63
2019-02-16T09:59:41.147Z,101191.62
2019-02-16T10:02:14.547Z,101187.63
2019-02-16T10:04:48.463Z,101183.33
2019-02-16T10:07:23.820Z,101188.22
2019-02-16T10:10:32.644Z,101195.61
2019-02-16T10:13:09.480Z,101203.73
2019-02-16T10:16:16.228Z,101204.75
2019-02-16T10:18:50.551Z,101200.45
2019-02-16T10:21:55.232Z,101199.44
2019-02-16T10:24:29.812Z,101199.66
2019-02-16T10:27:04.148Z,101197.41
2019-02-16T10:29:38.779Z,101195.17
2019-02-16T10:34:15.608Z,101202.53
2019-02-16T10:36:49.882Z,101197.44
2019-02-16T10:39:28.287Z,101198.16
2019-02-16T10:42:05.709Z,101193.37
2019-02-16T10:46:41.876Z,101197.45
2019-02-16T10:49:23.342Z,101185.41
2019-02-16T10:51:59.624Z,101186.31
2019-02-16T10:54:34.065Z,101183.58
2019-02-16T10:57:14.520Z,101177.42
2019-02-16T10:59:50.918Z,101176.02
2019-02-16T11:02:31.986Z,101176.65
2019-02-16T11:05:05.441Z,101175.84
2019-02-16T11:07:39.922Z,101175.63
2019-02-16T11:10:28.737Z,101172.27
2019-02-16T11:13:03.120Z,101167.64
2019-02-16T11:15:37.670Z,101159.66
2019-02-16T11:18:26.269Z,101155.44
2019-02-16T11:23:03.798Z,101157.98
2019-02-16T11:25:38.869Z,101148.38
2019-02-16T11:28:30.236Z,101153.49
2019-02-16T11:31:18.857Z,101153.86
2019-02-16T11:33:52.215Z,101145.23
2019-02-16T11:36:32.654Z,101142.45
2019-02-16T11:39:26.050Z,101147.80
2019-02-16T11:42:00.777Z,101144.77
2019-02-16T11:45:05.445Z,101144.03
2019-02-16T11:47:43.728Z,101140.16
2019-02-16T11:50:45.413Z,101148.76
2019-02-16T11:53:23.830Z,101140.73
2019-02-16T11:56:31.409Z,101132.42
2019-02-16T11:59:13.824Z,101130.43
2019-02-16T12:01:50.149Z,101129.17
2019-02-16T12:04:24.787Z,101126.80
2019-02-16T12:07:02.211Z,101126.16
2019-02-16T12:09:41.366Z,101119.53
2019-02-16T12:12:21.776Z,101113.28
2019-02-16T12:14:56.158Z,101104.47
2019-02-16T12:17:31.582Z,101098.33
2019-02-16T12:20:06.258Z,101099.36
2019-02-16T12:22:40.485Z,101097.63
2019-02-16T12:25:16.204Z,101087.78
2019-02-16T12:28:54.676Z,101088.80
2019-02-16T12:31:30.615Z,101091.80
2019-02-16T12:34:12.414Z,101084.82
2019-02-16T12:36:46.720Z,101089.02
2019-02-16T12:39:20.983Z,101090.53
2019-02-16T12:42:52.863Z,101085.39
2019-02-16T12:45:30.098Z,101072.73
2019-02-16T12:48:16.553Z,101070.72
2019-02-16T12:50:51.063Z,101063.05
2019-02-16T12:53:24.422Z,101063.20
2019-02-16T12:56:16.783Z,101062.98
2019-02-16T12:58:51.405Z,101063.13
2019-02-16T13:03:31.115Z,101057.34
2019-02-16T13:06:21.100Z,101048.31
2019-02-16T13:09:53.027Z,101054.80
2019-02-16T13:12:32.375Z,101045.20
2019-02-16T13:15:08.640Z,101043.53
2019-02-16T13:17:42.111Z,101032.58
2019-02-16T13:21:17.200Z,101030.38
2019-02-16T13:23:50.629Z,101028.00
2019-02-16T13:26:32.047Z,101022.38
2019-02-16T13:29:38.574Z,101024.63
2019-02-16T13:32:13.278Z,101024.17
2019-02-16T13:34:50.586Z,101022.72
2019-02-16T13:37:25.080Z,101017.95
2019-02-16T13:40:04.940Z,101016.65
2019-02-16T13:42:40.671Z,101012.57
2019-02-16T13:47:17.508Z,101015.12
2019-02-16T13:49:59.291Z,101020.88
2019-02-16T13:52:36.665Z,101019.27
2019-02-16T13:55:43.359Z,101022.42
2019-02-16T13:58:21.840Z,101023.86
2019-02-16T14:01:00.212Z,101026.13
2019-02-16T14:04:38.202Z,101023.16
2019-02-16T14:09:16.721Z,101024.30
2019-02-16T14:11:52.133Z,101024.45
2019-02-16T14:14:27.301Z,101020.48
2019-02-16T14:17:06.780Z,101016.98
2019-02-16T14:19:39.476Z,101018.30
2019-02-16T14:22:08.807Z,101008.24
2019-02-16T14:24:42.759Z,101007.19
2019-02-16T14:27:12.151Z,101006.41
2019-02-16T14:29:41.504Z,101002.16
2019-02-16T14:32:10.894Z,101001.28
2019-02-16T14:34:40.246Z,101004.80
2019-02-16T14:37:13.575Z,101000.52
2019-02-16T14:39:42.919Z,101001.72
2019-02-16T14:42:12.357Z,100988.73
2019-02-16T14:44:41.663Z,101000.09
2019-02-16T14:47:11.080Z,101007.59
2019-02-16T14:49:40.411Z,101001.94
2019-02-16T14:52:09.812Z,101009.22
2019-02-16T14:54:39.741Z,101013.67
2019-02-16T14:57:09.044Z,101013.88
2019-02-16T14:59:38.383Z,101015.95
2019-02-16T15:02:08.363Z,101015.13
2019-02-16T15:04:37.717Z,101012.77
2019-02-16T15:07:07.091Z,101016.86
2019-02-16T15:09:37.136Z,101013.47
2019-02-16T15:12:06.469Z,101011.45
2019-02-16T15:14:35.768Z,101006.63
2019-02-16T15:17:05.103Z,100998.38
2019-02-16T15:19:34.555Z,101005.33
2019-02-16T15:22:04.995Z,100997.56
2019-02-16T15:24:35.197Z,100991.69
2019-02-16T15:27:05.180Z,100996.27
2019-02-16T15:29:35.096Z,100991.42
2019-02-16T15:32:04.414Z,100980.37
2019-02-16T15:34:33.808Z,100984.42
2019-02-16T15:37:03.150Z,100977.13
2019-02-16T15:39:32.473Z,100976.81
2019-02-16T15:42:02.996Z,100985.05
2019-02-16T15:44:31.255Z,100979.67
2019-02-16T15:47:00.548Z,100985.86
2019-02-16T15:49:31.154Z,100982.84
2019-02-16T15:52:01.768Z,100976.42
2019-02-16T15:54:31.096Z,100980.29
2019-02-16T15:57:00.564Z,100973.48
2019-02-16T15:59:35.275Z,100977.33
2019-02-16T16:01:59.439Z,100973.66
2019-02-16T16:04:28.815Z,100967.95
2019-02-16T16:06:58.123Z,100973.62
2019-02-16T16:09:39.088Z,100972.02
2019-02-16T16:12:14.475Z,100970.72
2019-02-16T16:14:49.484Z,100971.44
2019-02-16T16:17:27.547Z,100969.95
2019-02-16T16:21:00.396Z,100964.69
2019-02-16T16:24:05.754Z,100968.22
2019-02-16T16:26:43.215Z,100974.93
2019-02-16T16:29:48.736Z,100972.97
2019-02-16T16:32:24.045Z,100976.59
2019-02-16T16:35:03.527Z,100976.19
2019-02-16T16:37:37.828Z,100971.20
2019-02-16T16:40:12.693Z,100961.94
2019-02-16T16:42:47.146Z,100962.75
2019-02-16T16:45:22.451Z,100971.78
2019-02-16T16:48:04.884Z,100974.20
2019-02-16T16:50:39.384Z,100969.89
2019-02-16T16:53:22.820Z,100971.23
2019-02-16T16:55:59.152Z,100970.17
2019-02-16T16:58:35.464Z,100973.78
2019-02-16T17:01:10.175Z,100971.65
2019-02-16T17:03:43.625Z,100968.48
2019-02-16T17:06:18.168Z,100966.96
2019-02-16T17:08:57.444Z,100965.47
2019-02-16T17:12:35.549Z,100972.76
2019-02-16T17:15:46.324Z,100974.08
2019-02-16T17:18:24.620Z,100976.22
2019-02-16T17:20:59.026Z,100976.17
2019-02-16T17:23:36.348Z,100979.19
2019-02-16T17:26:11.728Z,100974.23
2019-02-16T17:29:44.539Z,100980.23
2019-02-16T17:32:23.065Z,100978.45
2019-02-16T17:34:56.524Z,100979.68
2019-02-16T17:37:31.313Z,100977.42
2019-02-16T17:40:05.788Z,100982.05
2019-02-16T17:42:41.600Z,100977.95
2019-02-16T17:45:16.446Z,100980.66
2019-02-16T17:47:53.205Z,100980.58
2019-02-16T17:50:31.716Z,100984.86
2019-02-16T17:53:09.305Z,100983.67
2019-02-16T17:55:47.499Z,100985.44
2019-02-16T17:59:20.807Z,100979.39
2019-02-16T18:02:16.152Z,100987.55
2019-02-16T18:04:57.078Z,100986.08
2019-02-16T18:07:33.504Z,100978.93
2019-02-16T18:10:40.021Z,100981.61
2019-02-16T18:13:15.319Z,100981.73
2019-02-16T18:15:50.752Z,100991.02
2019-02-16T18:18:25.203Z,100988.72
2019-02-16T18:21:03.619Z,100991.16
2019-02-16T18:23:38.500Z,100985.09
2019-02-16T18:26:11.907Z,100985.21
2019-02-16T18:28:56.503Z,100978.77
2019-02-16T18:31:21.688Z,100976.13
2019-02-16T18:34:01.168Z,100967.77
2019-02-16T18:36:38.239Z,100977.75
2019-02-16T18:39:12.636Z,100962.16
2019-02-16T18:42:45.525Z,100959.02
2019-02-16T18:45:24.800Z,100958.31
2019-02-16T18:48:59.081Z,100951.74
2019-02-16T18:51:33.361Z,100947.78
2019-02-16T18:54:07.658Z,100951.55
2019-02-16T18:56:41.087Z,100948.52
2019-02-16T18:59:15.552Z,100948.92
2019-02-16T19:01:52.971Z,100950.50
2019-02-16T19:04:35.449Z,100952.55
2019-02-16T19:07:09.925Z,100952.94
2019-02-16T19:09:50.359Z,100952.31
2019-02-16T19:12:58.849Z,100952.55
2019-02-16T19:15:35.124Z,100951.48
2019-02-16T19:18:09.416Z,100951.85
2019-02-16T19:20:58.984Z,100950.50
2019-02-16T19:23:40.211Z,100953.06
2019-02-16T19:26:14.572Z,100945.65
2019-02-16T19:28:48.855Z,100948.06
2019-02-16T19:31:23.799Z,100940.80
2019-02-16T19:36:00.163Z,100935.91
2019-02-16T19:38:33.597Z,100935.56
2019-02-16T19:41:07.836Z,100935.55
2019-02-16T19:43:45.248Z,100935.55
2019-02-16T19:46:33.564Z,100929.13
2019-02-16T19:49:08.903Z,100930.69
2019-02-16T19:51:44.086Z,100930.44
2019-02-16T19:56:25.450Z,100933.59
2019-02-16T20:01:05.073Z,100936.84
2019-02-16T20:05:42.019Z,100936.24
2019-02-16T20:08:15.539Z,100935.37
2019-02-16T20:10:52.779Z,100935.00
2019-02-16T20:13:26.227Z,100936.94
2019-02-16T20:16:00.647Z,100940.83
2019-02-16T20:18:37.946Z,100935.95
2019-02-16T20:21:19.467Z,100934.42
2019-02-16T20:23:53.846Z,100940.03
2019-02-16T20:26:29.168Z,100937.25
2019-02-16T20:29:04.421Z,100934.42
2019-02-16T20:31:39.808Z,100935.23
2019-02-16T20:34:21.237Z,100936.67
2019-02-16T20:36:57.617Z,100938.35
2019-02-16T20:39:36.115Z,100933.24
2019-02-16T20:42:16.627Z,100933.13
2019-02-16T20:44:53.043Z,100930.08
2019-02-16T20:47:30.415Z,100928.73
2019-02-16T20:50:21.032Z,100933.23
2019-02-16T20:52:54.474Z,100934.67
2019-02-16T20:55:27.931Z,100937.80
2019-02-16T20:58:21.293Z,100935.73
2019-02-16T21:00:56.638Z,100942.02
2019-02-16T21:03:30.092Z,100942.02
2019-02-16T21:08:10.374Z,100937.18
2019-02-16T21:11:41.599Z,100938.11
2019-02-16T21:14:15.591Z,100937.45
2019-02-16T21:18:51.692Z,100938.44
2019-02-16T21:21:31.077Z,100928.12
2019-02-16T21:24:06.937Z,100942.44
2019-02-16T21:26:43.177Z,100937.78
2019-02-16T21:29:16.585Z,100938.72
2019-02-16T21:31:51.176Z,100939.70
2019-02-16T21:34:29.784Z,100941.14
2019-02-16T21:37:03.053Z,100943.54
2019-02-16T21:39:36.494Z,100943.65
2019-02-16T21:44:13.768Z,100939.36
2019-02-16T21:46:56.885Z,100944.80
2019-02-16T21:50:33.687Z,100943.57
2019-02-16T21:53:21.105Z,100942.00
2019-02-16T21:57:53.769Z,100942.22
2019-02-16T22:00:28.282Z,100934.77
2019-02-16T22:03:02.321Z,100933.41
2019-02-16T22:07:39.629Z,100938.08
2019-02-16T22:10:20.260Z,100930.73
2019-02-16T22:13:09.883Z,100934.95
2019-02-16T22:15:39.373Z,100928.64
2019-02-16T22:18:08.692Z,100926.06
2019-02-16T22:20:39.572Z,100922.66
2019-02-16T22:23:08.942Z,100918.77
2019-02-16T22:25:38.276Z,100916.81
2019-02-16T22:28:17.905Z,100912.05
2019-02-16T22:30:37.003Z,100917.45
2019-02-16T22:33:06.396Z,100916.93
2019-02-16T22:35:35.728Z,100916.55
2019-02-16T22:38:05.183Z,100919.42
2019-02-16T22:40:34.539Z,100914.84
2019-02-16T22:43:03.861Z,100912.94
2019-02-16T22:45:33.252Z,100911.82
2019-02-16T22:48:03.358Z,100912.31
2019-02-16T22:50:32.764Z,100908.88
2019-02-16T22:53:02.092Z,100912.03
2019-02-16T22:55:31.496Z,100912.03
2019-02-16T22:58:00.795Z,100908.04
2019-02-16T23:00:40.824Z,100910.22
2019-02-16T23:03:10.977Z,100916.88
2019-02-16T23:05:40.394Z,100908.67
2019-02-16T23:08:09.795Z,100910.39
2019-02-16T23:10:39.099Z,100917.15
2019-02-16T23:13:08.715Z,100916.98
2019-02-16T23:15:37.959Z,100915.54
2019-02-16T23:18:07.329Z,100913.37
2019-02-16T23:20:36.676Z,100923.70
2019-02-16T23:23:06.044Z,100914.00
2019-02-16T23:25:35.433Z,100918.37
2019-02-16T23:28:05.681Z,100915.72
2019-02-16T23:30:35.083Z,100918.97
2019-02-16T23:33:04.480Z,100912.14
2019-02-16T23:35:33.790Z,100904.26
2019-02-16T23:38:03.199Z,100904.75
2019-02-16T23:40:32.516Z,100895.26
2019-02-16T23:43:01.900Z,100895.58
2019-02-16T23:45:31.281Z,100894.84
2019-02-16T23:48:01.320Z,100894.94
2019-02-16T23:50:30.664Z,100896.45
2019-02-16T23:52:59.989Z,100891.23
2019-02-16T23:55:29.336Z,100891.64
2019-02-16T23:57:58.699Z,100893.92
